createdAt,value
2023-03-07T00:01:28.161Z,99886.72
2023-03-07T00:03:56.598Z,99893.66
2023-03-07T00:06:25.048Z,99887.50
2023-03-07T00:08:55.204Z,99896.69
2023-03-07T00:11:23.380Z,99892.09
2023-03-07T00:13:51.713Z,99885.94
2023-03-07T00:16:23.334Z,99882.00
2023-03-07T00:18:52.985Z,99882.94
2023-03-07T00:21:23.414Z,99883.72
2023-03-07T00:23:54.153Z,99888.72
2023-03-07T00:26:25.739Z,99889.94
2023-03-07T00:28:55.863Z,99884.59
2023-03-07T00:31:25.346Z,99880.25
2023-03-07T00:33:54.882Z,99891.41
2023-03-07T00:36:25.430Z,99879.91
2023-03-07T00:38:54.619Z,99883.72
2023-03-07T00:41:25.861Z,99872.97
2023-03-07T00:43:55.592Z,99885.25
2023-03-07T00:46:26.234Z,99884.81
2023-03-07T00:48:56.292Z,99891.75
2023-03-07T00:51:28.511Z,99888.63
2023-03-07T00:53:56.698Z,99888.19
2023-03-07T00:56:27.911Z,99889.75
2023-03-07T00:58:56.206Z,99886.59
2023-03-07T01:01:26.583Z,99885.81
2023-03-07T01:03:56.892Z,99891.53
2023-03-07T01:06:28.191Z,99889.63
2023-03-07T01:09:00.259Z,99882.00
2023-03-07T01:11:29.885Z,99879.69
2023-03-07T01:13:59.678Z,99876.13
2023-03-07T01:16:30.469Z,99886.06
2023-03-07T01:19:04.052Z,99874.13
2023-03-07T01:21:34.888Z,99874.78
2023-03-07T01:24:03.698Z,99870.22
2023-03-07T01:26:33.775Z,99876.34
2023-03-07T01:29:04.714Z,99881.38
2023-03-07T01:31:33.096Z,99872.56
2023-03-07T01:34:03.455Z,99868.31
2023-03-07T01:36:34.399Z,99874.78
2023-03-07T01:39:06.607Z,99868.66
2023-03-07T01:41:35.091Z,99863.94
2023-03-07T01:44:06.284Z,99863.03
2023-03-07T01:46:47.992Z,99860.59
2023-03-07T01:49:30.434Z,99850.53
2023-03-07T01:52:04.369Z,99848.97
2023-03-07T01:54:34.378Z,99840.94
2023-03-07T01:57:05.150Z,99839.03
2023-03-07T01:59:38.310Z,99839.72
2023-03-07T02:02:11.913Z,99832.00
2023-03-07T02:04:49.297Z,99831.22
2023-03-07T02:07:17.957Z,99832.00
2023-03-07T02:09:49.121Z,99833.88
2023-03-07T02:12:17.757Z,99827.31
2023-03-07T02:14:48.574Z,99827.31
2023-03-07T02:17:17.759Z,99822.28
2023-03-07T02:20:28.404Z,99808.88
2023-03-07T02:22:57.642Z,99805.75
2023-03-07T02:25:34.531Z,99809.13
2023-03-07T02:28:05.196Z,99801.75
2023-03-07T02:30:33.459Z,99815.13
2023-03-07T02:33:01.650Z,99811.22
2023-03-07T02:35:30.014Z,99806.22
2023-03-07T02:38:02.803Z,99807.66
2023-03-07T02:40:32.784Z,99803.75
2023-03-07T02:43:09.549Z,99792.03
2023-03-07T02:45:37.795Z,99793.47
2023-03-07T02:48:07.426Z,99779.63
2023-03-07T02:50:36.140Z,99784.56
2023-03-07T02:53:04.415Z,99780.19
2023-03-07T02:55:33.651Z,99792.34
2023-03-07T02:58:02.333Z,99776.63
2023-03-07T03:00:31.924Z,99774.28
2023-03-07T03:03:00.198Z,99766.25
2023-03-07T03:05:28.485Z,99761.66
2023-03-07T03:07:56.728Z,99766.25
2023-03-07T03:10:25.145Z,99771.59
2023-03-07T03:12:53.316Z,99765.91
2023-03-07T03:15:21.595Z,99770.09
2023-03-07T03:17:54.328Z,99754.84
2023-03-07T03:20:22.596Z,99761.75
2023-03-07T03:22:53.247Z,99751.84
2023-03-07T03:25:23.180Z,99757.97
2023-03-07T03:27:51.417Z,99752.28
2023-03-07T03:30:19.779Z,99751.63
2023-03-07T03:32:48.175Z,99750.94
2023-03-07T03:35:17.870Z,99754.41
2023-03-07T03:37:46.058Z,99746.38
2023-03-07T03:40:17.331Z,99751.38
2023-03-07T03:42:46.960Z,99747.63
2023-03-07T03:45:16.223Z,99741.13
2023-03-07T03:47:44.420Z,99742.34
2023-03-07T03:50:13.163Z,99730.97
2023-03-07T03:52:45.162Z,99724.13
2023-03-07T03:55:13.712Z,99728.38
2023-03-07T03:57:41.909Z,99725.81
2023-03-07T04:00:14.867Z,99725.81
2023-03-07T04:02:43.286Z,99715.88
2023-03-07T04:05:11.948Z,99720.91
2023-03-07T04:07:40.163Z,99717.88
2023-03-07T04:10:11.777Z,99718.66
2023-03-07T04:12:40.039Z,99715.97
2023-03-07T04:15:10.128Z,99715.19
2023-03-07T04:17:38.424Z,99704.94
2023-03-07T04:20:14.209Z,99711.50
2023-03-07T04:22:42.342Z,99693.13
2023-03-07T04:25:12.284Z,99695.41
2023-03-07T04:27:40.554Z,99689.28
2023-03-07T04:30:10.761Z,99688.53
2023-03-07T04:32:39.443Z,99683.81
2023-03-07T04:35:08.484Z,99686.84
2023-03-07T04:37:36.687Z,99691.09
2023-03-07T04:40:05.643Z,99684.59
2023-03-07T04:42:35.226Z,99678.47
2023-03-07T04:45:04.894Z,99678.47
2023-03-07T04:47:33.232Z,99678.47
2023-03-07T04:50:01.452Z,99676.13
2023-03-07T04:52:29.663Z,99661.94
2023-03-07T04:54:57.840Z,99662.28
2023-03-07T04:57:26.258Z,99663.84
2023-03-07T04:59:55.854Z,99656.16
2023-03-07T05:02:24.118Z,99659.97
2023-03-07T05:04:52.332Z,99661.06
2023-03-07T05:07:20.742Z,99658.38
2023-03-07T05:09:48.917Z,99651.47
2023-03-07T05:12:17.188Z,99648.78
2023-03-07T05:14:45.389Z,99652.22
2023-03-07T05:17:15.450Z,99649.25
2023-03-07T05:19:44.360Z,99647.66
2023-03-07T05:22:12.628Z,99649.25
2023-03-07T05:24:40.844Z,99645.44
2023-03-07T05:27:09.063Z,99642.28
2023-03-07T05:29:37.256Z,99631.25
2023-03-07T05:32:06.293Z,99631.56
2023-03-07T05:34:38.227Z,99642.19
2023-03-07T05:37:06.588Z,99628.47
2023-03-07T05:39:34.843Z,99622.31
2023-03-07T05:42:03.081Z,99633.81
2023-03-07T05:44:33.766Z,99623.09
2023-03-07T05:47:02.519Z,99630.03
2023-03-07T05:49:30.711Z,99626.91
2023-03-07T05:52:00.280Z,99623.09
2023-03-07T05:54:28.548Z,99625.78
2023-03-07T05:56:56.719Z,99617.75
2023-03-07T05:59:24.970Z,99621.53
2023-03-07T06:01:53.264Z,99622.31
2023-03-07T06:04:21.581Z,99625.00
2023-03-07T06:06:49.836Z,99615.06
2023-03-07T06:09:19.735Z,99617.75
2023-03-07T06:11:47.945Z,99606.25
2023-03-07T06:14:16.159Z,99611.59
2023-03-07T06:16:44.414Z,99606.59
2023-03-07T06:19:12.586Z,99602.78
2023-03-07T06:21:40.911Z,99600.13
2023-03-07T06:24:09.808Z,99614.28
2023-03-07T06:26:39.964Z,99604.00
2023-03-07T06:29:08.267Z,99591.72
2023-03-07T06:31:36.469Z,99592.06
2023-03-07T06:34:04.853Z,99593.97
2023-03-07T06:36:33.091Z,99598.56
2023-03-07T06:39:01.491Z,99601.25
2023-03-07T06:41:29.842Z,99599.34
2023-03-07T06:44:00.375Z,99585.16
2023-03-07T06:46:28.566Z,99596.66
2023-03-07T06:48:56.753Z,99598.56
2023-03-07T06:51:25.009Z,99589.41
2023-03-07T06:53:53.210Z,99586.38
2023-03-07T06:56:21.428Z,99582.47
2023-03-07T06:58:50.147Z,99589.41
2023-03-07T07:01:21.847Z,99581.34
2023-03-07T07:03:50.233Z,99590.19
2023-03-07T07:06:18.472Z,99585.59
2023-03-07T07:08:46.821Z,99584.47
2023-03-07T07:11:15.198Z,99577.22
2023-03-07T07:13:43.511Z,99581.78
2023-03-07T07:16:12.445Z,99580.34
2023-03-07T07:18:42.111Z,99578.09
2023-03-07T07:21:10.401Z,99573.53
2023-03-07T07:23:38.734Z,99580.44
2023-03-07T07:26:07.133Z,99575.09
2023-03-07T07:28:35.572Z,99585.47
2023-03-07T07:31:04.425Z,99582.00
2023-03-07T07:33:32.773Z,99579.22
2023-03-07T07:36:02.475Z,99580.00
2023-03-07T07:38:30.720Z,99581.22
2023-03-07T07:40:59.104Z,99584.69
2023-03-07T07:43:27.347Z,99587.34
2023-03-07T07:45:55.877Z,99584.38
2023-03-07T07:48:24.426Z,99592.81
2023-03-07T07:50:52.641Z,99590.50
2023-03-07T07:53:22.219Z,99595.09
2023-03-07T07:55:50.775Z,99594.28
2023-03-07T07:58:19.064Z,99589.00
2023-03-07T08:00:47.403Z,99598.59
2023-03-07T08:03:15.655Z,99594.47
2023-03-07T08:05:45.785Z,99593.34
2023-03-07T08:08:13.958Z,99598.38
2023-03-07T08:10:44.278Z,99605.63
2023-03-07T08:13:14.542Z,99608.31
2023-03-07T08:15:43.687Z,99614.34
2023-03-07T08:18:11.991Z,99615.81
2023-03-07T08:20:41.325Z,99621.94
2023-03-07T08:23:09.997Z,99624.88
2023-03-07T08:25:38.868Z,99634.59
2023-03-07T08:28:08.405Z,99629.63
2023-03-07T08:30:38.212Z,99641.25
2023-03-07T08:33:07.382Z,99662.78
2023-03-07T08:35:35.649Z,99691.81
2023-03-07T08:38:04.022Z,99665.34
2023-03-07T08:40:32.685Z,99659.78
2023-03-07T08:43:00.996Z,99657.53
2023-03-07T08:45:30.913Z,99660.41
2023-03-07T08:47:59.749Z,99664.13
2023-03-07T08:50:29.625Z,99652.50
2023-03-07T08:52:58.097Z,99659.75
2023-03-07T08:55:26.446Z,99657.72
2023-03-07T08:57:54.641Z,99666.84
2023-03-07T09:00:23.854Z,99674.09
2023-03-07T09:02:54.355Z,99677.13
2023-03-07T09:05:22.529Z,99679.53
2023-03-07T09:07:50.707Z,99677.44
2023-03-07T09:10:20.892Z,99695.44
2023-03-07T09:12:49.480Z,99692.19
2023-03-07T09:15:17.939Z,99693.53
2023-03-07T09:17:46.271Z,99702.19
2023-03-07T09:20:17.494Z,99695.47
2023-03-07T09:22:46.726Z,99705.72
2023-03-07T09:25:15.805Z,99703.38
2023-03-07T09:27:45.568Z,99710.56
2023-03-07T09:30:15.355Z,99710.13
2023-03-07T09:32:43.803Z,99705.00
2023-03-07T09:35:12.125Z,99717.91
2023-03-07T09:37:41.745Z,99708.66
2023-03-07T09:40:17.668Z,99705.66
2023-03-07T09:42:56.516Z,99712.13
2023-03-07T09:45:42.285Z,99703.44
2023-03-07T09:48:47.977Z,99716.59
2023-03-07T09:51:21.410Z,99699.44
2023-03-07T09:53:57.839Z,99709.59
2023-03-07T09:56:32.449Z,99703.94
2023-03-07T09:59:22.326Z,99702.50
2023-03-07T10:01:54.235Z,99706.41
2023-03-07T10:04:27.995Z,99703.09
2023-03-07T10:06:59.588Z,99709.69
2023-03-07T10:09:29.589Z,99711.13
2023-03-07T10:12:22.877Z,99708.13
2023-03-07T10:15:26.517Z,99720.38
2023-03-07T10:18:14.462Z,99720.38
2023-03-07T10:20:49.847Z,99719.94
2023-03-07T10:23:42.449Z,99716.78
2023-03-07T10:26:18.321Z,99717.91
2023-03-07T10:28:47.873Z,99718.22
2023-03-07T10:31:23.620Z,99730.03
2023-03-07T10:33:53.760Z,99730.47
2023-03-07T10:36:34.382Z,99725.13
2023-03-07T10:39:08.261Z,99730.47
2023-03-07T10:41:37.770Z,99732.69
2023-03-07T10:44:06.144Z,99727.22
2023-03-07T10:46:38.072Z,99728.00
2023-03-07T10:49:15.847Z,99729.59
2023-03-07T10:51:57.204Z,99735.38
2023-03-07T10:54:31.580Z,99732.69
2023-03-07T10:57:10.276Z,99735.38
2023-03-07T10:59:40.919Z,99737.59
2023-03-07T11:02:32.650Z,99732.88
2023-03-07T11:05:01.533Z,99735.13
2023-03-07T11:07:33.015Z,99731.50
2023-03-07T11:10:03.443Z,99735.75
2023-03-07T11:12:33.059Z,99732.19
2023-03-07T11:15:12.728Z,99735.97
2023-03-07T11:17:44.297Z,99733.75
2023-03-07T11:20:23.274Z,99734.84
2023-03-07T11:22:52.762Z,99733.63
2023-03-07T11:25:25.852Z,99722.94
2023-03-07T11:27:58.713Z,99731.28
2023-03-07T11:30:29.885Z,99723.25
2023-03-07T11:33:17.643Z,99720.44
2023-03-07T11:35:59.849Z,99730.69
2023-03-07T11:38:49.796Z,99721.09
2023-03-07T11:41:25.305Z,99729.44
2023-03-07T11:44:24.973Z,99733.84
2023-03-07T11:47:18.465Z,99729.47
2023-03-07T11:49:57.830Z,99725.56
2023-03-07T11:52:52.150Z,99720.56
2023-03-07T11:55:28.081Z,99729.69
2023-03-07T11:58:15.505Z,99725.44
2023-03-07T12:01:02.670Z,99725.31
2023-03-07T12:03:54.927Z,99727.06
2023-03-07T12:06:40.969Z,99726.16
2023-03-07T12:09:33.025Z,99724.56
2023-03-07T12:12:42.482Z,99718.31
2023-03-07T12:15:28.991Z,99718.94
2023-03-07T12:18:19.992Z,99723.84
2023-03-07T12:21:02.520Z,99720.72
2023-03-07T12:23:38.663Z,99716.00
2023-03-07T12:26:13.493Z,99715.22
2023-03-07T12:28:48.326Z,99714.09
2023-03-07T12:31:21.264Z,99712.69
2023-03-07T12:34:02.135Z,99707.81
2023-03-07T12:36:36.451Z,99719.72
2023-03-07T12:39:19.829Z,99708.09
2023-03-07T12:41:58.623Z,99707.91
2023-03-07T12:44:42.075Z,99705.06
2023-03-07T12:47:18.338Z,99701.06
2023-03-07T12:49:56.836Z,99704.66
2023-03-07T12:52:40.192Z,99709.47
2023-03-07T12:55:22.090Z,99710.41
2023-03-07T12:57:59.278Z,99706.00
2023-03-07T13:00:27.515Z,99710.34
2023-03-07T13:03:06.619Z,99700.09
2023-03-07T13:05:38.383Z,99706.34
2023-03-07T13:08:09.121Z,99711.84
2023-03-07T13:10:37.973Z,99698.91
2023-03-07T13:13:58.510Z,99698.59
2023-03-07T13:16:54.715Z,99707.09
2023-03-07T13:19:54.000Z,99711.31
2023-03-07T13:23:28.995Z,99706.91
2023-03-07T13:26:12.298Z,99712.25
2023-03-07T13:28:47.897Z,99709.22
2023-03-07T13:31:46.194Z,99707.34
2023-03-07T13:34:52.902Z,99707.13
2023-03-07T13:37:56.702Z,99707.56
2023-03-07T13:40:55.138Z,99708.34
2023-03-07T13:44:04.047Z,99712.59
2023-03-07T13:46:48.595Z,99718.72
2023-03-07T13:49:46.196Z,99712.91
2023-03-07T13:52:44.277Z,99719.81
2023-03-07T13:55:33.895Z,99716.03
2023-03-07T13:58:17.988Z,99714.38
2023-03-07T14:00:55.802Z,99712.03
2023-03-07T14:03:30.162Z,99716.59
2023-03-07T14:06:04.675Z,99705.13
2023-03-07T14:08:36.411Z,99711.56
2023-03-07T14:11:06.941Z,99714.69
2023-03-07T14:14:07.562Z,99719.72
2023-03-07T14:16:53.146Z,99717.03
2023-03-07T14:19:45.324Z,99723.94
2023-03-07T14:22:26.802Z,99724.72
2023-03-07T14:25:15.733Z,99721.28
2023-03-07T14:27:57.826Z,99732.41
2023-03-07T14:30:29.696Z,99734.44
2023-03-07T14:33:00.646Z,99731.91
2023-03-07T14:35:37.762Z,99732.81
2023-03-07T14:38:09.981Z,99733.72
2023-03-07T14:40:53.928Z,99740.66
2023-03-07T14:43:37.612Z,99732.94
2023-03-07T14:46:14.858Z,99730.59
2023-03-07T14:49:08.812Z,99737.06
2023-03-07T14:51:42.854Z,99719.91
2023-03-07T14:54:18.780Z,99735.94
2023-03-07T14:56:47.689Z,99737.50
2023-03-07T14:59:27.973Z,99724.47
2023-03-07T15:02:00.118Z,99732.81
2023-03-07T15:04:32.091Z,99728.59
2023-03-07T15:07:03.857Z,99732.03
2023-03-07T15:09:34.306Z,99730.91
2023-03-07T15:12:08.316Z,99732.81
2023-03-07T15:14:44.386Z,99739.72
2023-03-07T15:17:18.193Z,99743.19
2023-03-07T15:19:51.002Z,99740.50
2023-03-07T15:22:25.587Z,99733.25
2023-03-07T15:24:54.235Z,99746.00
2023-03-07T15:27:27.113Z,99736.84
2023-03-07T15:29:56.614Z,99730.38
2023-03-07T15:32:35.403Z,99737.28
2023-03-07T15:35:16.715Z,99735.06
2023-03-07T15:37:56.580Z,99748.13
2023-03-07T15:40:30.440Z,99740.88
2023-03-07T15:43:03.384Z,99748.44
2023-03-07T15:45:35.198Z,99742.78
2023-03-07T15:48:25.171Z,99749.53
2023-03-07T15:50:58.218Z,99753.22
2023-03-07T15:53:31.391Z,99754.66
2023-03-07T15:56:03.369Z,99758.44
2023-03-07T15:58:33.751Z,99758.00
2023-03-07T16:01:19.427Z,99761.31
2023-03-07T16:03:52.665Z,99750.94
2023-03-07T16:06:41.538Z,99764.00
2023-03-07T16:09:13.697Z,99766.84
2023-03-07T16:11:42.704Z,99766.63
2023-03-07T16:14:22.709Z,99768.84
2023-03-07T16:16:51.603Z,99760.81
2023-03-07T16:19:19.871Z,99770.25
2023-03-07T16:21:49.716Z,99766.03
2023-03-07T16:24:17.976Z,99771.69
2023-03-07T16:26:47.816Z,99780.84
2023-03-07T16:29:18.264Z,99787.75
2023-03-07T16:31:47.086Z,99785.72
2023-03-07T16:34:18.643Z,99790.78
2023-03-07T16:36:47.464Z,99794.44
2023-03-07T16:39:18.492Z,99799.22
2023-03-07T16:41:48.509Z,99794.81
2023-03-07T16:44:18.413Z,99796.44
2023-03-07T16:46:53.552Z,99802.72
2023-03-07T16:49:23.018Z,99801.50
2023-03-07T16:52:04.641Z,99803.38
2023-03-07T16:54:35.541Z,99824.44
2023-03-07T16:57:04.887Z,99815.31
2023-03-07T16:59:36.257Z,99829.00
2023-03-07T17:02:15.002Z,99830.44
2023-03-07T17:04:44.422Z,99831.09
2023-03-07T17:07:18.104Z,99840.81
2023-03-07T17:09:47.849Z,99834.72
2023-03-07T17:12:17.013Z,99838.94
2023-03-07T17:14:45.988Z,99840.53
2023-03-07T17:17:20.906Z,99855.44
2023-03-07T17:19:49.318Z,99853.09
2023-03-07T17:22:19.915Z,99861.75
2023-03-07T17:24:49.905Z,99861.28
2023-03-07T17:27:19.123Z,99875.25
2023-03-07T17:29:50.310Z,99888.50
2023-03-07T17:32:19.365Z,99890.66
2023-03-07T17:34:47.851Z,99905.00
2023-03-07T17:37:16.162Z,99888.03
2023-03-07T17:39:45.769Z,99902.84
2023-03-07T17:42:15.830Z,99905.50
2023-03-07T17:44:44.191Z,99901.56
2023-03-07T17:47:12.503Z,99916.81
2023-03-07T17:49:40.753Z,99916.66
2023-03-07T17:52:09.734Z,99915.06
2023-03-07T17:54:38.931Z,99925.16
2023-03-07T17:57:07.895Z,99933.00
2023-03-07T17:59:38.165Z,99935.97
2023-03-07T18:02:06.530Z,99938.97
2023-03-07T18:04:34.804Z,99935.81
2023-03-07T18:07:03.938Z,99932.69
2023-03-07T18:09:32.228Z,99940.69
2023-03-07T18:12:01.112Z,99937.56
2023-03-07T18:14:29.687Z,99941.78
2023-03-07T18:16:59.269Z,99941.78
2023-03-07T18:19:27.562Z,99949.31
2023-03-07T18:21:56.382Z,99942.09
2023-03-07T18:24:27.297Z,99945.56
2023-03-07T18:26:56.868Z,99943.69
2023-03-07T18:29:26.427Z,99954.66
2023-03-07T18:31:54.831Z,99951.53
2023-03-07T18:34:25.036Z,99951.09
2023-03-07T18:36:54.494Z,99949.19
2023-03-07T18:39:23.935Z,99945.75
2023-03-07T18:41:52.907Z,99936.94
2023-03-07T18:44:21.283Z,99941.50
2023-03-07T18:46:49.648Z,99934.56
2023-03-07T18:49:17.953Z,99937.25
2023-03-07T18:51:48.523Z,99930.03
2023-03-07T18:54:17.019Z,99931.91
2023-03-07T18:56:47.731Z,99944.47
2023-03-07T18:59:17.287Z,99943.22
2023-03-07T19:01:50.154Z,99951.84
2023-03-07T19:04:19.497Z,99943.38
2023-03-07T19:06:49.206Z,99946.81
2023-03-07T19:09:20.208Z,99944.16
2023-03-07T19:11:49.752Z,99951.69
2023-03-07T19:14:18.062Z,99960.47
2023-03-07T19:16:46.684Z,99952.47
2023-03-07T19:19:15.106Z,99955.13
2023-03-07T19:21:43.521Z,99960.16
2023-03-07T19:24:13.480Z,99966.28
2023-03-07T19:26:43.311Z,99962.50
2023-03-07T19:29:13.090Z,99967.84
2023-03-07T19:31:43.777Z,99971.34
2023-03-07T19:34:12.379Z,99969.44
2023-03-07T19:36:41.588Z,99974.78
2023-03-07T19:39:14.941Z,99971.94
2023-03-07T19:41:47.959Z,99972.25
2023-03-07T19:44:17.145Z,99965.66
2023-03-07T19:46:47.209Z,99968.63
2023-03-07T19:49:16.771Z,99973.50
2023-03-07T19:51:45.190Z,99978.66
2023-03-07T19:54:15.158Z,99990.75
2023-03-07T19:56:45.748Z,99990.44
2023-03-07T19:59:15.160Z,100000.78
2023-03-07T20:01:45.982Z,99991.22
2023-03-07T20:04:16.463Z,99992.50
2023-03-07T20:06:45.818Z,99995.94
2023-03-07T20:09:14.764Z,99995.94
2023-03-07T20:11:45.205Z,99998.63
2023-03-07T20:14:15.728Z,99995.16
2023-03-07T20:16:44.360Z,99996.25
2023-03-07T20:19:20.672Z,100005.34
2023-03-07T20:21:50.028Z,100003.00
2023-03-07T20:24:19.103Z,99995.00
2023-03-07T20:26:49.028Z,100009.91
2023-03-07T20:29:17.377Z,100004.56
2023-03-07T20:31:45.837Z,99998.13
2023-03-07T20:34:14.169Z,99997.06
2023-03-07T20:36:44.355Z,99994.22
2023-03-07T20:39:14.964Z,100007.22
2023-03-07T20:41:44.421Z,100001.44
2023-03-07T20:44:16.325Z,100005.97
2023-03-07T20:46:44.901Z,100007.84
2023-03-07T20:49:15.070Z,100015.09
2023-03-07T20:51:44.455Z,100028.72
2023-03-07T20:54:15.894Z,100011.13
2023-03-07T20:56:46.439Z,100008.00
2023-03-07T20:59:19.371Z,99998.09
2023-03-07T21:01:48.883Z,100005.78
2023-03-07T21:04:20.585Z,100021.50
2023-03-07T21:06:50.307Z,100033.25
2023-03-07T21:09:19.965Z,100035.66
2023-03-07T21:11:50.402Z,100034.03
2023-03-07T21:14:21.582Z,100031.88
2023-03-07T21:16:50.014Z,100040.34
2023-03-07T21:19:18.330Z,100032.34
2023-03-07T21:21:46.696Z,100029.66
2023-03-07T21:24:16.109Z,100043.47
2023-03-07T21:26:44.677Z,100052.00
2023-03-07T21:29:16.910Z,100051.19
2023-03-07T21:31:46.620Z,100053.88
2023-03-07T21:34:15.574Z,100045.88
2023-03-07T21:36:47.915Z,100038.00
2023-03-07T21:39:16.291Z,100028.91
2023-03-07T21:41:44.494Z,100050.75
2023-03-07T21:44:14.375Z,100059.22
2023-03-07T21:46:42.651Z,100063.78
2023-03-07T21:49:13.070Z,100061.44
2023-03-07T21:51:41.321Z,100053.72
2023-03-07T21:54:09.530Z,100067.84
2023-03-07T21:56:37.849Z,100061.44
2023-03-07T21:59:06.074Z,100068.66
2023-03-07T22:01:34.410Z,100068.94
2023-03-07T22:04:02.724Z,100070.81
2023-03-07T22:06:32.348Z,100076.47
2023-03-07T22:09:01.064Z,100086.69
2023-03-07T22:11:29.364Z,100077.09
2023-03-07T22:13:57.544Z,100086.69
2023-03-07T22:16:25.895Z,100083.22
2023-03-07T22:18:55.720Z,100085.91
2023-03-07T22:21:26.045Z,100089.34
2023-03-07T22:23:59.542Z,100080.56
2023-03-07T22:26:29.185Z,100087.78
2023-03-07T22:28:57.650Z,100080.56
2023-03-07T22:31:27.047Z,100081.34
2023-03-07T22:33:55.335Z,100085.56
2023-03-07T22:36:23.657Z,100072.69
2023-03-07T22:38:56.547Z,100079.63
2023-03-07T22:41:26.248Z,100084.34
2023-03-07T22:43:54.620Z,100084.34
2023-03-07T22:46:23.313Z,100083.72
2023-03-07T22:48:54.169Z,100068.81
2023-03-07T22:51:24.364Z,100079.94
2023-03-07T22:53:52.864Z,100067.69
2023-03-07T22:56:25.494Z,100077.28
2023-03-07T22:58:53.876Z,100075.44
2023-03-07T23:01:25.493Z,100080.75
2023-03-07T23:03:55.468Z,100074.59
2023-03-07T23:06:25.759Z,100087.94
2023-03-07T23:08:54.782Z,100077.59
2023-03-07T23:11:26.034Z,100083.72
2023-03-07T23:13:55.209Z,100081.84
2023-03-07T23:16:26.126Z,100075.44
2023-03-07T23:18:56.582Z,100069.28
2023-03-07T23:21:28.884Z,100069.28
2023-03-07T23:23:57.759Z,100067.41
2023-03-07T23:26:29.723Z,100067.41
2023-03-07T23:28:58.691Z,100057.81
2023-03-07T23:31:29.153Z,100053.25
2023-03-07T23:33:59.247Z,100055.16
2023-03-07T23:36:30.304Z,100043.41
2023-03-07T23:38:59.543Z,100041.00
2023-03-07T23:41:29.182Z,100047.91
2023-03-07T23:43:59.804Z,100052.31
2023-03-07T23:46:29.216Z,100053.88
2023-03-07T23:48:58.021Z,100054.69
2023-03-07T23:51:26.681Z,100042.13
2023-03-07T23:53:54.913Z,100040.22
2023-03-07T23:56:23.368Z,100052.47
2023-03-07T23:58:53.768Z,100059.69
